• Join FlightAware (Why Join?)
  • Login
  • US Flag 
07:59PM EDT


 

Airport Tracker/Info


-or-


 

Live Flight TrackerFlight Track Log ✈ AAL832 ✈ 26-Apr-2013 ✈ KORD - KMIA

Flight Track Log - Related Links

Times and Time Zones

All times are in EDT time to prevent confusion due to time zone crossing. See the AAL832 flight status page for this flight to view local times or setup timezone preferences in your user account.

Time Position Orientation Groundspeed Altitude Reporting Facility
EDT Latitude Longitude Course Direction KTS MPH feet Rate Location/Type
06:02PM 41.9667 -87.9500 180° South 167 192 2,600  Level Chicago TRACON
06:03PM 41.9167 -87.9833 206° Southwest 219 252 4,400 1,260 Climbing Chicago TRACON
06:04PM 41.7603 -87.7772 180° South  Level Estimated
06:04PM 41.8500 -88.0167 200° South 252 290 5,200  Level Chicago TRACON
06:05PM 41.6496 -87.7128 180° South  Level Estimated
06:05PM 41.8269 -88.0061 161° South 242 278 6,200  Level Chicago Center
06:06PM 41.5389 -87.6487 176° South  Level Estimated
06:06PM 41.7439 -87.9806 167° South 257 296 10,400  Level Chicago Center
06:07PM 41.4281 -87.5847 189° South  Level Estimated
06:07PM 41.6681 -87.9564 167° South 277 319 12,900  Level Chicago Center
06:08PM 41.3167 -87.5207 180° South  Level Estimated
06:08PM 41.5825 -87.9108 158° South 328 377 14,700  Level Chicago Center
06:09PM 41.4847 -87.8578 158° South 373 429 17,200 2,220 Climbing Chicago Center
06:10PM 41.3753 -87.8294 169° South 389 448 19,400 2,100 Climbing Chicago Center
06:11PM 41.2628 -87.8047 171° South 397 457 21,600 2,040 Climbing Chicago Center
06:12PM 41.1453 -87.7764 170° South 412 474 23,700 1,920 Climbing Chicago Center
06:13PM 41.0256 -87.7481 170° South 426 490 25,600 1,980 Climbing Chicago Center
06:14PM 40.8761 -87.7114 169° South 450 518 27,800 1,860 Climbing Chicago Center
06:15PM 40.7494 -87.6822 170° South 461 531 29,500 1,560 Climbing Chicago Center
06:16PM 40.6208 -87.6511 170° South 470 541 31,100 2,220 Climbing Chicago Center
06:17PM 40.4950 -87.6231 170° South 463 533 34,200 2,220 Climbing Chicago Center
06:18PM 40.3778 -87.5961 170° South 433 498 35,800 840 Climbing Chicago Center
06:19PM 40.2342 -87.5633 170° South 439 505 36,000 60 Climbing Chicago Center
06:20PM 40.1064 -87.5358 171° South 444 511 36,000  Level Chicago Center
06:21PM 40.0231 -87.5181 171° South 441 507 36,000  Level Indianapolis Center
06:22PM 39.8803 -87.4858 170° South 443 510 36,000  Level Indianapolis Center
06:23PM 39.7578 -87.4567 170° South 446 513 36,100 360 Climbing Indianapolis Center
06:24PM 39.6361 -87.4297 170° South 442 509 36,800 420 Climbing Indianapolis Center
06:25PM 39.5156 -87.4025 170° South 441 507 37,000 60 Climbing Indianapolis Center
06:26PM 39.3936 -87.3753 170° South 443 510 37,000  Level Indianapolis Center
06:27PM 39.2531 -87.3458 171° South 438 504 37,000  Level Indianapolis Center
06:28PM 39.1300 -87.3186 170° South 442 509 37,000  Level Indianapolis Center
06:29PM 39.0047 -87.2922 171° South 443 510 37,000  Level Indianapolis Center
06:30PM 38.8825 -87.2650 170° South 445 512 37,000  Level Indianapolis Center
06:31PM 38.7606 -87.2381 170° South 443 510 37,000  Level Indianapolis Center
06:33PM 38.6394 -87.2114 170° South 440 506 37,000  Level Indianapolis Center
06:34PM 38.5183 -87.1850 170° South 440 506 37,000  Level Indianapolis Center
06:35PM 38.3789 -87.1553 171° South 440 506 37,000  Level Indianapolis Center
06:36PM 38.2575 -87.1297 171° South 440 506 37,000  Level Indianapolis Center
06:37PM 38.1408 -87.1036 170° South 438 504 37,000  Level Indianapolis Center
06:38PM 38.0211 -87.0767 170° South 437 503 37,000  Level Indianapolis Center
06:39PM 37.9014 -87.0503 170° South 436 502 37,000  Level Indianapolis Center
06:40PM 37.7572 -87.0186 170° South 437 503 37,000  Level Indianapolis Center
06:41PM 37.6381 -86.9939 171° South 434 499 37,000  Level Indianapolis Center
06:42PM 37.5244 -86.9697 170° South 432 497 37,000  Level Indianapolis Center
06:43PM 37.4039 -86.9472 172° South 433 498 37,000  Level Indianapolis Center
06:44PM 37.2822 -86.9211 170° South 435 501 37,000  Level Memphis Center
06:45PM 37.1628 -86.8950 170° South 430 495 37,000  Level Memphis Center
06:46PM 37.0453 -86.8689 170° South 430 495 37,000  Level Memphis Center
06:47PM 36.9239 -86.8458 171° South 435 501 37,000  Level Memphis Center
06:48PM 36.7917 -86.8178 170° South 435 501 37,000  Level Memphis Center
06:49PM 36.6722 -86.7922 170° South 435 501 37,000  Level Memphis Center
06:50PM 36.5528 -86.7664 170° South 435 501 37,000  Level Memphis Center
06:51PM 36.4297 -86.7667 180° South 435 501 37,000  Level Memphis Center
06:52PM 36.3172 -86.7692 181° South 442 509 37,000  Level Memphis Center
06:53PM 36.1922 -86.7744 182° South 451 519 37,000  Level Memphis Center
06:54PM 36.0725 -86.7389 167° South 451 519 37,000  Level Memphis Center
06:55PM 35.9594 -86.6592 150° Southeast 451 519 37,000  Level Memphis Center
06:57PM 35.6797 -86.4650 151° Southeast 473 544 37,000  Level Atlanta Center
06:58PM 35.5644 -86.3850 151° Southeast 478 550 37,000  Level Atlanta Center
06:59PM 35.4492 -86.3025 150° Southeast 478 550 37,000  Level Atlanta Center
07:00PM 35.3339 -86.2231 151° Southeast 478 550 37,000  Level Atlanta Center
07:01PM 35.2183 -86.1439 151° Southeast 478 550 37,000  Level Atlanta Center
07:02PM 35.1153 -86.0725 150° Southeast 473 544 37,000  Level Atlanta Center
07:03PM 34.9997 -85.9961 152° Southeast 473 544 37,000  Level Atlanta Center
07:04PM 34.8758 -85.9047 149° Southeast 473 544 37,000  Level Atlanta Center
07:05PM 34.7581 -85.8261 151° Southeast 478 550 37,000  Level Atlanta Center
07:06PM 34.6506 -85.7608 153° Southeast 473 544 37,000  Level Atlanta Center
07:07PM 34.5367 -85.6828 151° Southeast 473 544 37,000  Level Atlanta Center
07:08PM 34.4189 -85.6075 152° Southeast 473 544 37,000  Level Atlanta Center
07:09PM 34.3047 -85.5375 153° Southeast 468 539 37,000  Level Atlanta Center
07:10PM 34.1803 -85.4850 161° South 468 539 37,000  Level Atlanta Center
07:11PM 34.0578 -85.4328 161° South 468 539 37,000  Level Atlanta Center
07:12PM 33.9331 -85.3783 160° South 473 544 37,000  Level Atlanta Center
07:14PM 33.6967 -85.2222 151° Southeast 487 560 37,000  Level Atlanta Center
07:15PM 33.5786 -85.1383 149° Southeast 495 570 37,000  Level Atlanta Center
07:16PM 33.4458 -85.0494 151° Southeast 495 570 37,000  Level Atlanta Center
07:17PM 33.3253 -84.9661 150° Southeast 495 570 37,000  Level Atlanta Center
07:18PM 33.2047 -84.8828 150° Southeast 500 575 37,000  Level Atlanta Center
07:19PM 33.0844 -84.8000 150° Southeast 495 570 37,000 360 Level Atlanta Center
07:20PM 32.9594 -84.7147 150° Southeast 502 578 37,800 900 Climbing Atlanta Center
07:21PM 32.8411 -84.6347 150° Southeast 502 578 38,900 600 Climbing Atlanta Center
07:22PM 32.7328 -84.5647 151° Southeast 496 571 39,000  Climbing Atlanta Center
07:23PM 32.6142 -84.4828 150° Southeast 496 571 39,000  Level Atlanta Center
07:24PM 32.4933 -84.4008 150° Southeast 496 571 39,000  Level Atlanta Center
07:25PM 32.3744 -84.3192 150° Southeast 496 571 39,000  Level Atlanta Center
07:27PM 32.1372 -84.1611 151° Southeast 487 560 39,000  Level Jacksonville Center
07:28PM 32.0169 -84.0808 150° Southeast 487 560 39,000  Level Jacksonville Center
07:29PM 31.8944 -84.0036 152° Southeast 487 560 39,000  Level Jacksonville Center
07:30PM 31.7739 -83.9264 151° Southeast 492 566 39,000  Level Jacksonville Center
07:31PM 31.6411 -83.8344 149° Southeast 504 580 39,000  Level Jacksonville Center
07:32PM 31.5122 -83.7553 152° Southeast 509 586 39,000  Level Jacksonville Center
07:33PM 31.3936 -83.6764 150° Southeast 503 579 39,000  Level Jacksonville Center
07:34PM 31.2731 -83.5975 151° Southeast 498 573 39,000  Level Jacksonville Center
07:35PM 31.1522 -83.5189 151° Southeast 493 567 39,000  Level Jacksonville Center
07:36PM 31.0336 -83.4431 151° Southeast 493 567 39,000  Level Jacksonville Center
07:37PM 30.9086 -83.3647 152° Southeast 498 573 39,000  Level Jacksonville Center
07:38PM 30.7942 -83.2892 150° Southeast 493 567 39,000  Level Jacksonville Center
07:39PM 30.6692 -83.2211 155° Southeast 493 567 39,000  Level Jacksonville Center
07:40PM 30.5564 -83.1653 157° South 488 562 39,000  Level Jacksonville Center
07:41PM 30.4333 -83.1047 157° South 488 562 39,000  Level Jacksonville Center
07:42PM 30.3103 -83.0417 156° South 482 555 39,000  Level Jacksonville Center
07:43PM 30.1850 -82.9814 157° South 482 555 39,000  Level Jacksonville Center
07:44PM 30.0619 -82.9214 157° South 482 555 39,000  Level Jacksonville Center
07:45PM 29.9242 -82.8542 157° South 482 555 39,000  Level Jacksonville Center
07:46PM 29.8031 -82.7944 157° South 482 555 39,000  Level Jacksonville Center
07:47PM 29.6778 -82.7347 157° South 477 549 39,000  Level Jacksonville Center
07:48PM 29.5544 -82.6731 156° South 483 556 39,000  Level Jacksonville Center
07:49PM 29.4436 -82.6158 156° South 483 556 39,000  Level Jacksonville Center
07:50PM 29.3183 -82.5711 163° South 473 544 39,000  Level Jacksonville Center
07:51PM 29.1911 -82.5833 185° South 455 524 39,000  Level Jacksonville Center
07:52PM 29.0636 -82.5981 186° South 453 521 39,000  Level Jacksonville Center
07:53PM 28.9386 -82.6125 186° South 458 527 39,000  Level Jacksonville Center
07:54PM 28.8111 -82.6294 187° South 463 533 39,000  Level Jacksonville Center
07:55PM 28.6778 -82.6489 187° South 463 533 39,000  Level Jacksonville Center
07:56PM 28.5525 -82.6656 187° South 458 527 39,000  Level Jacksonville Center
07:57PM 28.4253 -82.6825 187° South 458 527 39,000  Level Jacksonville Center
07:59PM 28.1750 -82.7156 187° South 460 529 39,000  Level Miami Center
08:00PM 28.0450 -82.7278 185° South 465 535 39,000  Level Miami Center
08:01PM 27.9303 -82.7311 181° South 465 535 39,000  Level Miami Center
08:02PM 27.8047 -82.6872 163° South 457 526 39,000  Level Miami Center
08:03PM 27.6794 -82.6386 161° South 472 543 39,000  Level Miami Center
08:04PM 27.5542 -82.5903 161° South 477 549 39,000 -240 Level Miami Center
08:05PM 27.4219 -82.5064 151° Southeast 488 562 38,600 -540 Descending Miami Center
08:06PM 27.3172 -82.4056 139° Southeast 501 577 38,000 -840 Descending Miami Center
08:07PM 27.2247 -82.3122 138° Southeast 508 585 37,000 -1,380 Descending Miami Center
08:08PM 27.1222 -82.2050 137° Southeast 506 582 35,300 -1,020 Descending Miami Center
08:09PM 27.0197 -82.1022 138° Southeast 506 582 35,000 -180 Descending Miami Center
08:10PM 26.9169 -81.9975 138° Southeast 506 582 35,000 -420 Level Miami Center
08:11PM 26.8181 -81.8978 138° Southeast 501 577 34,200 -2,220 Descending Miami Center
08:12PM 26.7172 -81.7958 138° Southeast 496 571 30,600 -3,300 Descending Miami Center
08:13PM 26.6144 -81.6869 137° Southeast 496 571 27,700 -3,180 Descending Miami Center
08:14PM 26.5053 -81.5758 138° Southeast 496 571 24,300 -3,180 Descending Miami Center
08:15PM 26.4042 -81.4767 139° Southeast 491 565 21,400 -2,700 Descending Miami Center
08:16PM 26.3089 -81.3828 139° Southeast 479 551 19,000 -2,580 Descending Miami Center
08:17PM 26.2219 -81.2936 137° Southeast 454 522 16,300 -2,760 Descending Miami Center
08:18PM 26.1347 -81.2072 138° Southeast 434 499 13,500 -2,700 Descending Miami Center
08:19PM 26.0517 -81.1233 138° Southeast 420 483 10,900 -2,220 Descending Miami Center
08:20PM 26.0028 -81.0800 141° Southeast 385 443 10,000 -1,020 Descending Miami Center
08:20PM 25.9744 -81.0489 135° Southeast 394 453 9,900  Descending Miami Center
08:21PM 25.9336 -81.0150 143° Southeast 310 357 10,000  Climbing Miami Center
08:21PM 25.9114 -80.9867 131° Southeast 347 399 9,900 -120 Descending Miami Center
08:22PM 25.8872 -80.9536 129° Southeast 276 318 9,900 -720 Level Miami Center
08:22PM 25.8844 -80.9094 94° East 283 326 9,200 -1,380 Descending Miami Center
08:23PM 25.8814 -80.8656 94° East 278 320 8,500 -1,500 Descending Miami Center
08:23PM 25.8825 -80.8217 88° East 269 310 7,700 -1,620 Descending Miami Center
08:24PM 25.8778 -80.7661 95° East 280 322 6,700 -1,440 Descending Miami Center
08:24PM 25.8806 -80.7364 84° East 269 310 6,300 -1,140 Descending Miami Center
08:25PM 25.8778 -80.6900 94° East 254 292 5,600 -1,140 Descending Miami Center
08:25PM 25.8806 -80.6625 84° East 261 300 5,200 -900 Descending Miami Center
08:26PM 25.8753 -80.6206 98° East 190 219 4,600 -660 Descending Miami Center
08:27PM 25.8747 -80.5653 91° East 182 209 4,100 -600 Descending Miami Center
08:27PM 25.8772 -80.5444 82° East 194 223 3,900 -540 Descending Miami Center
08:28PM 25.8719 -80.5028 98° East 185 213 3,600 -540 Descending Miami Center
08:29PM 25.8692 -80.4497 93° East 180 207 3,000 -600 Descending Miami Center